Time;durP1;ratioP1;P1;durP2;ratioP2;P2;SDS_P1;SDS_P2;PMS_P1;PMS_P2;Temp;Humidity;BMP_temperature;BMP_pressure;BME280_temperature;BME280_humidity;BME280_pressure;Samples;Min_cycle;Max_cycle;Signal;HPM_P1;HPM_P2
2023/04/18 00:00:33;;;;;;;6.07;4.03;;;9.50;99.90;;;;;;6241100;23;20358;-74
2023/04/18 00:03:01;;;;;;;6.87;3.20;;;9.50;99.90;;;;;;6241199;22;20424;-74
2023/04/18 00:05:32;;;;;;;5.23;3.57;;;9.40;99.90;;;;;;6239755;23;20408;-74
2023/04/18 00:08:03;;;;;;;9.50;5.30;;;9.40;99.90;;;;;;6240409;23;20404;-74
2023/04/18 00:10:33;;;;;;;5.00;3.63;;;9.40;99.90;;;;;;6241466;23;20427;-75
2023/04/18 00:13:49;;;;;;;6.60;5.00;;;9.30;99.90;;;;;;6214987;23;20406;-74
2023/04/18 00:26:33;;;;;;;4.20;3.13;;;9.10;99.90;;;;;;6078515;23;20415;-73
2023/04/18 00:29:02;;;;;;;6.40;4.23;;;9.10;99.90;;;;;;6253635;23;20466;-71
2023/04/18 00:31:32;;;;;;;7.40;4.97;;;8.90;99.90;;;;;;6244928;23;21062;-73
2023/04/18 00:33:59;;;;;;;5.33;3.33;;;8.90;99.90;;;;;;6237288;22;21014;-73
2023/04/18 00:36:26;;;;;;;6.50;3.27;;;8.90;99.90;;;;;;6238031;23;20545;-74
2023/04/18 00:38:58;;;;;;;5.70;3.93;;;8.90;99.90;;;;;;6236595;23;20699;-72
2023/04/18 00:41:27;;;;;;;9.30;5.27;;;8.90;99.90;;;;;;6214055;23;20408;-75
2023/04/18 00:43:58;;;;;;;6.33;3.43;;;8.80;99.90;;;;;;6240160;22;20423;-75
2023/04/18 00:46:25;;;;;;;4.30;2.70;;;8.80;99.90;;;;;;6239000;23;20394;-75
2023/04/18 00:48:54;;;;;;;4.60;3.40;;;8.80;99.90;;;;;;6239115;23;20858;-74
2023/04/18 00:51:21;;;;;;;6.03;4.07;;;8.80;99.90;;;;;;6238777;23;20493;-74
2023/04/18 00:53:50;;;;;;;6.83;4.00;;;8.80;99.90;;;;;;6237597;22;20484;-74
2023/04/18 00:56:22;;;;;;;6.03;3.70;;;8.80;99.90;;;;;;6208969;23;20382;-74
2023/04/18 00:58:49;;;;;;;10.10;4.57;;;8.70;99.90;;;;;;6236452;23;20538;-74
2023/04/18 01:01:25;;;;;;;8.20;4.57;;;8.80;99.90;;;;;;6237158;23;20727;-73
2023/04/18 01:03:58;;;;;;;5.77;3.43;;;8.80;99.90;;;;;;6211310;23;20752;-74
2023/04/18 01:06:26;;;;;;;6.50;4.27;;;8.70;99.90;;;;;;6240849;23;20400;-74
2023/04/18 01:08:54;;;;;;;11.80;4.10;;;8.70;99.90;;;;;;6239197;23;20381;-74
2023/04/18 01:11:22;;;;;;;6.77;3.90;;;8.60;99.90;;;;;;6209068;23;20493;-74
2023/04/18 01:14:03;;;;;;;3.87;3.10;;;8.60;99.90;;;;;;6243198;22;20428;-74
2023/04/18 01:16:32;;;;;;;5.50;3.67;;;8.50;99.90;;;;;;6238593;23;20506;-71
2023/04/18 01:18:59;;;;;;;4.10;3.33;;;8.50;99.90;;;;;;6254298;23;20378;-74
2023/04/18 01:21:29;;;;;;;5.07;2.87;;;8.50;99.90;;;;;;6235489;23;20453;-72
2023/04/18 01:24:03;;;;;;;4.10;3.20;;;8.50;99.90;;;;;;6238769;22;20431;-74
2023/04/18 01:26:33;;;;;;;12.70;5.50;;;8.50;99.90;;;;;;6238905;23;20389;-74
2023/04/18 01:29:06;;;;;;;6.60;4.47;;;8.50;99.90;;;;;;6214947;23;20451;-75
2023/04/18 01:31:36;;;;;;;5.03;3.60;;;8.50;99.90;;;;;;6249234;23;20875;-74
2023/04/18 01:34:04;;;;;;;4.80;4.23;;;8.40;99.90;;;;;;6237826;22;20485;-74
2023/04/18 01:36:36;;;;;;;4.40;3.70;;;8.40;99.90;;;;;;6239840;23;20458;-74
2023/04/18 01:39:04;;;;;;;3.40;2.60;;;8.40;99.90;;;;;;6213720;23;21039;-74
2023/04/18 01:41:34;;;;;;;3.53;2.23;;;8.50;99.90;;;;;;6209783;23;20529;-74
2023/04/18 01:44:02;;;;;;;5.23;2.73;;;8.40;99.90;;;;;;6211963;23;20402;-74
2023/04/18 01:46:30;;;;;;;4.63;3.00;;;8.40;99.90;;;;;;6239450;23;20382;-74
2023/04/18 01:48:59;;;;;;;8.90;3.27;;;8.40;99.90;;;;;;6236809;23;20411;-75
2023/04/18 01:51:27;;;;;;;5.80;2.93;;;8.40;99.90;;;;;;6234376;23;20439;-73
2023/04/18 01:53:59;;;;;;;3.80;2.67;;;8.30;99.90;;;;;;6240535;22;20426;-73
2023/04/18 01:56:26;;;;;;;5.07;2.57;;;8.40;99.90;;;;;;6239971;23;20435;-74
2023/04/18 01:58:54;;;;;;;5.03;2.60;;;8.50;99.90;;;;;;6238550;23;20455;-73
2023/04/18 02:01:21;;;;;;;3.07;2.77;;;8.50;99.90;;;;;;6239185;23;20837;-74
2023/04/18 02:03:48;;;;;;;6.37;4.10;;;8.50;99.90;;;;;;6255398;22;20430;-77
2023/04/18 02:06:15;;;;;;;6.17;3.43;;;8.50;99.90;;;;;;6251144;23;20976;-75
2023/04/18 02:08:42;;;;;;;6.13;3.30;;;8.40;99.90;;;;;;6237392;23;20399;-74
2023/04/18 02:11:09;;;;;;;5.03;2.20;;;8.50;99.90;;;;;;6238719;23;21012;-73
2023/04/18 02:13:40;;;;;;;3.97;3.63;;;8.50;99.90;;;;;;6246157;22;20427;-73
2023/04/18 02:16:14;;;;;;;4.73;2.60;;;8.40;99.90;;;;;;6257690;23;20395;-76
2023/04/18 02:18:44;;;;;;;4.53;2.77;;;8.40;99.90;;;;;;6241289;23;20407;-74
2023/04/18 02:21:12;;;;;;;5.07;2.80;;;8.30;99.90;;;;;;6237504;23;20381;-72
2023/04/18 02:23:42;;;;;;;3.87;3.47;;;8.30;99.90;;;;;;6238242;22;20497;-75
2023/04/18 02:26:10;;;;;;;3.30;2.67;;;8.20;99.90;;;;;;6240433;23;20418;-75
2023/04/18 02:28:37;;;;;;;4.57;2.97;;;8.20;99.90;;;;;;6240200;23;20404;-75
2023/04/18 02:31:05;;;;;;;4.90;2.67;;;8.20;99.90;;;;;;6211575;23;20505;-75
2023/04/18 02:33:33;;;;;;;5.67;2.80;;;8.20;99.90;;;;;;6245290;22;20402;-75
2023/04/18 02:36:00;;;;;;;5.97;3.03;;;8.20;99.90;;;;;;6240511;23;20431;-75
2023/04/18 02:38:27;;;;;;;4.37;3.40;;;8.10;99.90;;;;;;6240999;23;20404;-75
2023/04/18 02:40:54;;;;;;;3.90;2.20;;;8.10;99.90;;;;;;6239263;23;20469;-74
2023/04/18 02:43:23;;;;;;;4.40;3.40;;;8.10;99.90;;;;;;6240912;22;20489;-73
2023/04/18 02:45:50;;;;;;;4.50;2.93;;;8.10;99.90;;;;;;6240490;23;20447;-75
2023/04/18 02:48:17;;;;;;;4.80;3.77;;;8.10;99.90;;;;;;6249055;23;20411;-77
2023/04/18 02:50:46;;;;;;;5.13;3.40;;;8.00;99.90;;;;;;6247931;23;20435;-74
2023/04/18 02:53:13;;;;;;;5.43;3.20;;;8.00;99.90;;;;;;6239927;22;20428;-75
2023/04/18 02:55:42;;;;;;;3.97;2.90;;;8.10;99.90;;;;;;6211422;23;20424;-75
2023/04/18 02:58:10;;;;;;;4.10;2.73;;;7.90;99.90;;;;;;6240266;23;20415;-75
2023/04/18 03:00:38;;;;;;;6.13;2.63;;;7.90;99.90;;;;;;6240017;23;20396;-75
2023/04/18 03:03:05;;;;;;;4.53;3.17;;;7.80;99.90;;;;;;6239437;22;21010;-75
2023/04/18 03:05:32;;;;;;;5.80;3.47;;;7.90;99.90;;;;;;6238707;23;20409;-75
2023/04/18 03:08:00;;;;;;;5.47;3.80;;;7.90;99.90;;;;;;6240996;23;20378;-75
2023/04/18 03:10:30;;;;;;;5.07;3.40;;;7.90;99.90;;;;;;6242268;23;20565;-77
2023/04/18 03:12:58;;;;;;;4.33;3.00;;;7.90;99.90;;;;;;6253343;22;20451;-76
2023/04/18 03:15:29;;;;;;;3.40;3.10;;;8.00;99.90;;;;;;6186030;23;20426;-76
2023/04/18 03:17:59;;;;;;;2.23;1.53;;;8.00;99.90;;;;;;6239879;23;20398;-76
2023/04/18 03:20:26;;;;;;;6.57;3.90;;;8.00;99.90;;;;;;6241953;23;20758;-76
2023/04/18 03:22:56;;;;;;;5.40;4.00;;;7.90;99.90;;;;;;6240090;22;20423;-75
2023/04/18 03:25:33;;;;;;;5.03;3.50;;;8.00;99.90;;;;;;6235021;23;20424;-76
2023/04/18 03:28:00;;;;;;;10.03;4.10;;;8.10;99.90;;;;;;6239197;23;20389;-76
2023/04/18 03:30:31;;;;;;;3.10;2.67;;;8.10;99.90;;;;;;6236414;23;20431;-74
2023/04/18 03:33:05;;;;;;;8.70;4.33;;;8.20;99.90;;;;;;6237826;22;20428;-76
2023/04/18 03:35:36;;;;;;;4.47;3.53;;;8.30;99.90;;;;;;6239448;23;20406;-74
2023/04/18 03:38:03;;;;;;;4.30;3.60;;;8.40;99.90;;;;;;6247188;23;20503;-73
2023/04/18 03:40:32;;;;;;;4.90;3.37;;;8.50;99.90;;;;;;6254476;23;20414;-73
2023/04/18 03:42:59;;;;;;;6.33;3.70;;;8.50;99.90;;;;;;6242352;22;20409;-75
2023/04/18 03:45:26;;;;;;;4.33;2.73;;;8.40;99.90;;;;;;6238523;23;20470;-75
2023/04/18 03:47:53;;;;;;;7.50;3.97;;;8.40;99.90;;;;;;6239049;23;20416;-76
2023/04/18 03:50:24;;;;;;;9.50;2.87;;;8.10;99.90;;;;;;6236846;23;20578;-75
2023/04/18 03:52:56;;;;;;;4.60;3.70;;;8.00;99.90;;;;;;6242867;22;20497;-75
2023/04/18 03:55:23;;;;;;;7.10;2.90;;;8.00;99.90;;;;;;6243367;23;20373;-76
2023/04/18 03:57:54;;;;;;;3.70;2.80;;;8.00;99.90;;;;;;6240438;23;20486;-74
2023/04/18 04:00:23;;;;;;;4.77;2.73;;;8.00;99.90;;;;;;6238125;23;20393;-75
2023/04/18 04:02:55;;;;;;;4.80;2.67;;;8.10;99.90;;;;;;6236884;22;20437;-75
2023/04/18 04:05:51;;;;;;;5.90;3.90;;;8.10;99.90;;;;;;6233282;23;20561;-76
2023/04/18 04:16:06;;;;;;;5.00;4.00;;;8.30;99.90;;;;;;6235956;23;20436;-74
2023/04/18 04:19:16;;;;;;;5.40;3.40;;;8.20;99.90;;;;;;6234270;23;20722;-74
2023/04/18 04:31:51;;;;;;;2.80;2.00;;;8.40;99.90;;;;;;6138528;23;20761;-75
2023/04/18 04:34:19;;;;;;;4.33;2.50;;;8.40;99.90;;;;;;6143385;23;21027;-75
2023/04/18 04:37:00;;;;;;;6.57;3.43;;;8.40;99.90;;;;;;6140960;23;20510;-74
2023/04/18 04:39:30;;;;;;;6.50;4.80;;;8.30;99.90;;;;;;6140734;23;20478;-75
2023/04/18 04:42:11;;;;;;;7.97;4.23;;;8.30;99.90;;;;;;6142194;23;20528;-75
2023/04/18 04:44:53;;;;;;;3.60;3.13;;;8.40;99.90;;;;;;6141817;23;20419;-75
2023/04/18 04:47:29;;;;;;;9.77;4.50;;;8.40;99.90;;;;;;6142294;23;20434;-73
2023/04/18 04:49:59;;;;;;;8.40;4.97;;;8.40;99.90;;;;;;6142062;23;20373;-74
2023/04/18 04:52:31;;;;;;;6.13;3.43;;;8.50;99.90;;;;;;6142964;23;20789;-75
2023/04/18 04:54:58;;;;;;;5.70;4.10;;;8.50;99.90;;;;;;6144087;23;20480;-74
2023/04/18 04:57:30;;;;;;;9.73;3.60;;;8.50;99.90;;;;;;6144333;23;20376;-75
2023/04/18 04:59:58;;;;;;;6.13;3.97;;;8.50;99.90;;;;;;6146683;23;20774;-76
2023/04/18 05:02:34;;;;;;;6.87;4.57;;;8.70;99.90;;;;;;6227125;22;20482;-76
2023/04/18 05:05:12;;;;;;;9.03;4.40;;;8.60;99.90;;;;;;6254544;23;20449;-74
2023/04/18 05:08:05;;;;;;;5.57;4.97;;;8.70;99.90;;;;;;6240184;23;20425;-76
2023/04/18 05:11:04;;;;;;;5.00;3.37;;;8.80;99.90;;;;;;6238430;23;20411;-75
2023/04/18 05:13:38;;;;;;;4.20;3.67;;;8.80;99.90;;;;;;6248306;22;20431;-74
2023/04/18 05:16:11;;;;;;;5.00;4.23;;;8.70;99.90;;;;;;6253736;23;20466;-75
2023/04/18 05:18:42;;;;;;;6.57;3.97;;;8.60;99.90;;;;;;6240429;23;20407;-75
2023/04/18 05:21:12;;;;;;;3.57;3.27;;;8.70;99.90;;;;;;6241460;23;20416;-75
2023/04/18 05:23:40;;;;;;;6.43;4.27;;;8.70;99.90;;;;;;6238136;22;20482;-76
2023/04/18 05:26:14;;;;;;;5.63;4.50;;;8.70;99.90;;;;;;6252316;23;20403;-75
2023/04/18 05:28:54;;;;;;;6.30;3.90;;;8.80;99.90;;;;;;6239724;23;20461;-75
2023/04/18 05:38:31;;;;;;;8.03;3.57;;;8.80;99.90;;;;;;6218930;23;20658;-77
2023/04/18 05:41:21;;;;;;;4.40;3.93;;;9.00;99.90;;;;;;6169223;23;20411;-76
2023/04/18 05:52:04;;;;;;;;;;;;;;;;;;;;;
2023/04/18 05:58:51;;;;;;;;;;;;;;;;;;;;;
2023/04/18 06:04:45;;;;;;;7.10;3.73;;;8.90;99.90;;;;;;6064364;23;20696;-75
2023/04/18 06:10:47;;;;;;;8.17;4.50;;;8.80;99.90;;;;;;6076409;23;20502;-75
2023/04/18 06:13:16;;;;;;;5.03;4.23;;;8.90;99.90;;;;;;6088605;23;20447;-76
2023/04/18 06:15:48;;;;;;;8.23;4.73;;;9.10;99.90;;;;;;6088366;23;20411;-74
2023/04/18 06:18:18;;;;;;;5.70;2.83;;;9.10;99.90;;;;;;6083664;23;20454;-75
2023/04/18 06:20:46;;;;;;;4.20;3.00;;;9.20;99.90;;;;;;6088953;23;20436;-75
2023/04/18 06:23:15;;;;;;;6.57;3.80;;;9.20;99.90;;;;;;6088610;23;20439;-76
2023/04/18 06:25:48;;;;;;;4.00;3.47;;;9.30;99.90;;;;;;6087496;23;20454;-75
2023/04/18 06:28:21;;;;;;;9.90;5.60;;;9.20;99.90;;;;;;6120184;23;20436;-76
2023/04/18 06:30:48;;;;;;;6.73;4.10;;;9.30;99.90;;;;;;6178489;23;20389;-76
2023/04/18 06:33:15;;;;;;;6.77;4.80;;;9.10;99.90;;;;;;6180919;23;20452;-75
2023/04/18 06:35:48;;;;;;;23.63;8.40;;;9.20;99.90;;;;;;6178329;23;20402;-75
2023/04/18 06:38:18;;;;;;;13.17;8.30;;;9.10;99.90;;;;;;6177940;23;20413;-75
2023/04/18 06:40:47;;;;;;;4.90;4.27;;;9.20;99.90;;;;;;6186884;23;20396;-75
2023/04/18 06:43:14;;;;;;;5.77;3.43;;;9.10;99.90;;;;;;6243658;22;20423;-74
2023/04/18 06:45:41;;;;;;;8.03;4.73;;;9.00;99.90;;;;;;6247900;23;20407;-75
2023/04/18 06:48:09;;;;;;;6.50;3.70;;;9.10;99.90;;;;;;6247381;23;20403;-72
2023/04/18 06:50:39;;;;;;;4.50;3.83;;;9.20;99.90;;;;;;6254638;23;20434;-73
2023/04/18 06:53:06;;;;;;;8.57;4.63;;;9.20;99.90;;;;;;6217725;23;20513;-73
2023/04/18 06:55:34;;;;;;;9.30;5.20;;;9.10;99.90;;;;;;6184755;23;20431;-75
2023/04/18 06:58:07;;;;;;;6.67;5.23;;;9.00;99.90;;;;;;6246869;23;20407;-73
2023/04/18 07:00:34;;;;;;;6.43;5.67;;;9.10;99.90;;;;;;6250492;23;20388;-72
2023/04/18 07:03:04;;;;;;;6.10;3.90;;;9.20;99.90;;;;;;6239422;22;20447;-74
2023/04/18 07:05:31;;;;;;;8.30;4.77;;;9.20;99.90;;;;;;6240145;23;20408;-74
2023/04/18 07:07:58;;;;;;;8.20;4.80;;;9.30;99.90;;;;;;6240977;23;20456;-74
2023/04/18 07:10:25;;;;;;;10.43;6.90;;;9.20;99.90;;;;;;6238581;23;20401;-74
2023/04/18 07:12:53;;;;;;;4.00;3.60;;;9.20;99.90;;;;;;6240614;22;20482;-74
2023/04/18 07:15:21;;;;;;;4.40;4.00;;;9.30;99.90;;;;;;6213119;23;20513;-74
2023/04/18 07:17:51;;;;;;;4.77;3.13;;;9.10;99.90;;;;;;6237651;23;20457;-71
2023/04/18 07:20:18;;;;;;;6.40;4.40;;;9.00;99.90;;;;;;6236215;23;20412;-74
2023/04/18 07:22:48;;;;;;;8.10;4.60;;;8.90;99.90;;;;;;6240209;22;20513;-74
2023/04/18 07:25:18;;;;;;;6.80;4.90;;;8.90;99.90;;;;;;6239730;23;20443;-74
2023/04/18 07:27:50;;;;;;;8.63;4.73;;;8.90;99.90;;;;;;6239495;23;20434;-74
2023/04/18 07:30:21;;;;;;;6.20;4.90;;;9.00;99.90;;;;;;6239976;23;20826;-74
2023/04/18 07:32:48;;;;;;;5.00;3.77;;;9.00;99.90;;;;;;6238538;22;20447;-73
2023/04/18 07:35:16;;;;;;;11.10;5.27;;;8.90;99.90;;;;;;6213224;23;20378;-75
2023/04/18 07:37:46;;;;;;;7.93;3.83;;;9.10;99.90;;;;;;6240254;23;20403;-75
2023/04/18 07:40:18;;;;;;;5.73;4.80;;;9.10;99.90;;;;;;6237556;23;20777;-75
2023/04/18 07:42:45;;;;;;;6.77;4.17;;;9.10;99.90;;;;;;6239201;22;20464;-74
2023/04/18 07:45:14;;;;;;;7.23;4.47;;;9.10;99.90;;;;;;6248396;23;20393;-74
2023/04/18 07:47:45;;;;;;;11.27;6.60;;;9.10;99.90;;;;;;6239944;23;20407;-74
2023/04/18 07:50:13;;;;;;;12.70;5.83;;;9.30;99.90;;;;;;6238845;23;20415;-75
2023/04/18 07:55:57;;;;;;;7.87;5.27;;;9.70;99.90;;;;;;6249751;23;20425;-72
2023/04/18 07:58:34;;;;;;;12.30;5.67;;;9.70;99.90;;;;;;6242795;23;20383;-75
2023/04/18 08:01:02;;;;;;;7.93;4.90;;;9.60;99.90;;;;;;6240096;23;20476;-72
2023/04/18 08:03:32;;;;;;;10.73;5.80;;;9.50;99.90;;;;;;6252797;22;20969;-75
2023/04/18 08:06:09;;;;;;;8.90;6.43;;;9.70;99.90;;;;;;6240455;23;20454;-74
2023/04/18 08:08:36;;;;;;;6.10;5.10;;;9.70;99.90;;;;;;6237889;23;20430;-74
2023/04/18 08:11:31;;;;;;;9.07;5.47;;;9.80;99.90;;;;;;6237999;23;20784;-75
2023/04/18 08:14:28;;;;;;;5.10;3.17;;;9.90;99.90;;;;;;6240084;22;20804;-75
2023/04/18 08:16:57;;;;;;;4.57;3.30;;;9.60;99.90;;;;;;6238815;23;20421;-74
2023/04/18 08:19:31;;;;;;;6.47;4.00;;;9.80;99.90;;;;;;6236643;23;20489;-75
2023/04/18 08:22:08;;;;;;;6.97;5.00;;;9.70;99.90;;;;;;6241832;23;20953;-75
2023/04/18 08:24:34;;;;;;;3.27;3.00;;;9.80;99.90;;;;;;6253493;23;20501;-74
2023/04/18 08:27:03;;;;;;;5.90;4.27;;;9.80;99.90;;;;;;6250221;23;20381;-75
2023/04/18 08:29:30;;;;;;;5.83;3.83;;;9.80;99.90;;;;;;6238803;23;21007;-75
2023/04/18 08:31:57;;;;;;;8.63;5.20;;;10.00;99.90;;;;;;6239989;23;20403;-73
2023/04/18 08:34:52;;;;;;;;;;;;;;;;;;;;;
2023/04/18 08:38:00;;;;;;;5.93;5.00;;;10.10;99.90;;;;;;6229014;23;20488;-74
2023/04/18 08:40:29;;;;;;;10.50;6.30;;;10.10;99.90;;;;;;6174553;23;20723;-75
2023/04/18 08:42:58;;;;;;;8.30;5.43;;;10.10;99.90;;;;;;6239341;22;20417;-75
2023/04/18 08:45:43;;;;;;;8.00;5.33;;;10.10;99.90;;;;;;6239582;23;20450;-76
2023/04/18 08:48:17;;;;;;;30.17;3.77;;;10.00;99.90;;;;;;6240521;23;20426;-75
2023/04/18 08:51:09;;;;;;;6.60;5.67;;;10.00;99.90;;;;;;6240101;23;20795;-74
2023/04/18 08:56:31;;;;;;;9.33;5.60;;;9.80;99.90;;;;;;6237141;23;20419;-74
2023/04/18 08:59:19;;;;;;;6.60;4.87;;;9.90;99.90;;;;;;6237927;23;20428;-74
2023/04/18 09:02:00;;;;;;;7.50;4.90;;;10.00;99.90;;;;;;6240003;23;20447;-75
2023/04/18 09:04:35;;;;;;;13.97;6.43;;;10.00;99.90;;;;;;6239226;22;20465;-76
2023/04/18 09:07:09;;;;;;;6.17;4.80;;;9.90;99.90;;;;;;6237857;23;20382;-76
2023/04/18 09:09:50;;;;;;;7.10;4.57;;;9.90;99.90;;;;;;6239671;23;20412;-75
2023/04/18 09:12:25;;;;;;;7.47;4.80;;;10.10;99.90;;;;;;6244781;22;20435;-75
2023/04/18 09:15:09;;;;;;;23.83;8.17;;;10.10;99.90;;;;;;6240194;23;20837;-75
2023/04/18 09:17:49;;;;;;;6.03;3.70;;;10.20;99.90;;;;;;6238604;23;20432;-75
2023/04/18 09:20:33;;;;;;;8.40;5.13;;;10.20;99.90;;;;;;6247999;23;20426;-74
2023/04/18 09:23:09;;;;;;;9.53;6.43;;;10.10;99.90;;;;;;6238258;22;20428;-72
2023/04/18 09:25:43;;;;;;;1.63;1.40;;;10.10;99.90;;;;;;6239766;23;20388;-76
2023/04/18 09:28:26;;;;;;;9.00;5.17;;;10.00;99.90;;;;;;6240065;23;20425;-75
2023/04/18 09:31:07;;;;;;;10.10;5.70;;;10.00;99.90;;;;;;6238860;23;20368;-74
2023/04/18 09:33:45;;;;;;;8.60;6.07;;;10.10;99.90;;;;;;6238386;22;20538;-74
2023/04/18 09:36:25;;;;;;;9.23;5.83;;;10.30;99.90;;;;;;6243799;23;20823;-75
2023/04/18 09:39:18;;;;;;;10.40;5.10;;;10.30;99.90;;;;;;6239482;23;20445;-73
2023/04/18 09:42:06;;;;;;;14.30;7.03;;;10.60;99.90;;;;;;6239207;23;20525;-75
2023/04/18 09:44:33;;;;;;;7.90;5.17;;;10.60;99.90;;;;;;6239681;23;20897;-73
2023/04/18 09:47:06;;;;;;;9.20;4.53;;;10.40;99.90;;;;;;6254255;23;20391;-75
2023/04/18 09:49:46;;;;;;;8.80;5.43;;;10.50;99.90;;;;;;6247281;23;20791;-73
2023/04/18 09:53:01;;;;;;;10.67;5.70;;;10.70;99.90;;;;;;6243873;22;20410;-75
2023/04/18 10:02:33;;;;;;;8.17;5.57;;;10.60;99.90;;;;;;5907155;24;20413;-75
2023/04/18 10:05:27;;;;;;;11.43;5.53;;;10.90;99.90;;;;;;5912103;24;20424;-76
2023/04/18 10:08:27;;;;;;;8.23;5.30;;;11.30;99.90;;;;;;5918978;24;20417;-76
2023/04/18 10:14:41;;;;;;;10.03;5.93;;;11.90;99.90;;;;;;5843280;24;21002;-74
2023/04/18 10:17:41;;;;;;;10.07;6.57;;;11.80;99.90;;;;;;5921077;24;20788;-75
2023/04/18 10:20:10;;;;;;;10.87;5.77;;;12.00;99.90;;;;;;6029350;23;20512;-74
2023/04/18 10:22:40;;;;;;;10.50;6.53;;;12.10;99.90;;;;;;6029446;23;20429;-74
2023/04/18 10:25:18;;;;;;;8.60;5.50;;;12.00;99.90;;;;;;6031477;23;20453;-75
2023/04/18 10:28:13;;;;;;;9.60;6.23;;;11.80;99.90;;;;;;6033980;23;20390;-74
2023/04/18 10:31:14;;;;;;;;;;;;;;;;;;;;;
2023/04/18 10:34:16;;;;;;;12.33;6.00;;;11.80;99.90;;;;;;6112212;23;20450;-75
2023/04/18 10:37:25;;;;;;;;;;;;;;;;;;;;;
2023/04/18 10:40:44;;;;;;;10.87;6.20;;;11.60;99.90;;;;;;6244361;23;20476;-74
2023/04/18 10:43:38;;;;;;;5.37;3.43;;;11.90;99.90;;;;;;6224257;22;20451;-76
2023/04/18 10:46:12;;;;;;;7.00;4.57;;;11.90;99.90;;;;;;6212331;23;20477;-74
2023/04/18 10:48:41;;;;;;;5.93;4.47;;;11.90;99.90;;;;;;6245467;23;20413;-74
2023/04/18 10:51:29;;;;;;;10.03;6.00;;;12.20;99.90;;;;;;6241621;23;20407;-75
2023/04/18 10:54:05;;;;;;;11.67;6.53;;;12.20;99.90;;;;;;6211666;23;20534;-75
2023/04/18 10:57:07;;;;;;;;;;;;;;;;;;;;;
2023/04/18 11:19:33;;;;;;;10.40;6.17;;;12.80;99.90;;;;;;6235978;23;20490;-74
2023/04/18 11:22:06;;;;;;;13.40;7.40;;;12.40;99.90;;;;;;6240494;23;20408;-76
2023/04/18 11:24:34;;;;;;;8.03;4.90;;;12.30;99.90;;;;;;6211071;23;20401;-74
2023/04/18 11:31:40;;;;;;;;;;;;;;;;;;;;;
2023/04/18 11:38:17;;;;;;;11.10;6.10;;;12.50;99.90;;;;;;5924171;23;20442;-75
2023/04/18 11:41:22;;;;;;;7.07;5.40;;;12.80;99.90;;;;;;6026480;23;20412;-75
2023/04/18 11:48:10;;;;;;;9.93;4.03;;;13.10;99.90;;;;;;5890350;24;20415;-75
2023/04/18 11:51:03;;;;;;;12.00;5.97;;;12.70;99.90;;;;;;5996028;23;20467;-74
2023/04/18 11:57:41;;;;;;;7.40;5.90;;;12.70;99.90;;;;;;6029795;23;20990;-74
2023/04/18 12:00:42;;;;;;;11.27;6.20;;;12.80;99.90;;;;;;6057914;23;20415;-76
2023/04/18 12:09:20;;;;;;;3.33;3.00;;;12.90;99.90;;;;;;6113825;23;20461;-75
2023/04/18 12:16:32;;;;;;;7.67;4.37;;;12.80;99.90;;;;;;5917473;24;20432;-75
2023/04/18 12:19:31;;;;;;;13.60;6.10;;;12.80;99.90;;;;;;5986140;23;20458;-74
2023/04/18 12:25:28;;;;;;;5.33;4.97;;;12.70;99.90;;;;;;6085048;23;20459;-73
2023/04/18 12:28:08;;;;;;;11.30;6.93;;;12.70;99.90;;;;;;6092417;23;20803;-74
2023/04/18 12:30:44;;;;;;;16.70;9.00;;;12.70;99.90;;;;;;6089253;23;20384;-76
2023/04/18 12:33:11;;;;;;;8.30;5.97;;;12.80;99.90;;;;;;6086454;23;20472;-75
2023/04/18 12:35:41;;;;;;;13.27;7.73;;;12.80;99.90;;;;;;6088241;23;20487;-75
2023/04/18 12:38:12;;;;;;;12.33;7.47;;;12.50;99.90;;;;;;6090343;23;20418;-74
2023/04/18 12:40:40;;;;;;;16.03;7.77;;;12.60;99.90;;;;;;6100341;23;20403;-74
2023/04/18 12:43:15;;;;;;;9.00;7.33;;;12.70;99.90;;;;;;6091349;23;20616;-76
2023/04/18 12:45:54;;;;;;;11.67;8.20;;;12.70;99.90;;;;;;6087437;23;20419;-73
2023/04/18 12:58:03;;;;;;;12.63;4.07;;;13.00;99.90;;;;;;6117189;23;20402;-75
2023/04/18 13:41:04;;;;;;;10.70;8.03;;;17.20;99.90;;;;;;6205643;23;20410;-77
2023/04/18 14:01:01;;;;;;;4.50;3.37;;;16.70;99.90;;;;;;6000011;23;20929;-75
2023/04/18 14:10:36;;;;;;;10.77;7.30;;;15.80;99.90;;;;;;5968906;23;20399;-74
2023/04/18 14:13:03;;;;;;;10.83;7.63;;;15.30;99.90;;;;;;6003766;23;20652;-75
2023/04/18 14:15:31;;;;;;;9.53;6.60;;;15.10;99.90;;;;;;6002839;23;20636;-75
2023/04/18 14:21:21;;;;;;;10.20;6.80;;;15.10;99.90;;;;;;6017839;23;20741;-75
2023/04/18 14:24:34;;;;;;;11.27;8.30;;;15.20;99.90;;;;;;6035340;23;20492;-72
2023/04/18 14:27:10;;;;;;;8.83;6.73;;;15.30;99.90;;;;;;6043548;23;21014;-74
2023/04/18 14:33:33;;;;;;;9.30;5.80;;;14.90;99.90;;;;;;6017338;23;20427;-75
2023/04/18 14:36:08;;;;;;;11.93;9.10;;;14.80;99.90;;;;;;6079547;23;20409;-75
2023/04/18 14:38:48;;;;;;;8.90;5.57;;;14.80;99.90;;;;;;6131303;23;20558;-75
2023/04/18 14:41:31;;;;;;;9.00;5.90;;;15.00;99.90;;;;;;6120531;23;20381;-74
2023/04/18 14:57:29;;;;;;;11.23;6.83;;;14.70;99.90;;;;;;6128662;23;20425;-75
2023/04/18 15:04:12;;;;;;;11.57;7.80;;;15.00;99.90;;;;;;6090511;23;20434;-75
2023/04/18 15:07:43;;;;;;;;;;;;;;;;;;;;;
2023/04/18 15:10:48;;;;;;;14.30;8.67;;;15.50;99.90;;;;;;6131381;23;20410;-75
2023/04/18 15:27:10;;;;;;;;;;;;;;;;;;;;;
2023/04/18 15:49:12;;;;;;;10.03;6.03;;;15.20;99.90;;;;;;6026194;23;20429;-73
2023/04/18 15:51:46;;;;;;;16.90;8.10;;;15.30;99.90;;;;;;6141724;23;20417;-75
2023/04/18 15:57:33;;;;;;;8.50;7.63;;;14.90;99.90;;;;;;6129030;23;20918;-75
2023/04/18 16:00:03;;;;;;;10.43;6.77;;;14.90;99.90;;;;;;6138134;23;20460;-75
2023/04/18 16:02:46;;;;;;;8.80;5.30;;;14.80;99.90;;;;;;6144931;23;20413;-75
2023/04/18 16:05:15;;;;;;;10.73;6.20;;;15.00;99.90;;;;;;6144173;23;21127;-75
2023/04/18 16:08:10;;;;;;;6.37;5.03;;;14.80;99.90;;;;;;6144863;23;20434;-76
2023/04/18 16:13:37;;;;;;;7.37;6.53;;;14.70;99.90;;;;;;6144899;23;20426;-73
2023/04/18 16:16:39;;;;;;;10.53;7.07;;;14.60;99.90;;;;;;6173185;23;20756;-74
2023/04/18 16:19:55;;;;;;;8.03;6.33;;;14.80;99.90;;;;;;6240051;23;20419;-74
2023/04/18 16:22:42;;;;;;;10.80;7.40;;;15.00;99.90;;;;;;6239109;22;20415;-72
2023/04/18 16:25:31;;;;;;;8.17;6.50;;;14.90;99.90;;;;;;6237147;23;20408;-76
2023/04/18 16:28:04;;;;;;;7.93;4.87;;;14.80;99.90;;;;;;6246257;23;20370;-75
2023/04/18 16:33:53;;;;;;;6.03;5.20;;;14.50;99.90;;;;;;6232543;22;20428;-74
2023/04/18 16:36:23;;;;;;;9.27;6.60;;;14.60;99.90;;;;;;6237508;23;20521;-74
2023/04/18 16:38:53;;;;;;;5.77;5.17;;;14.40;99.90;;;;;;6236887;23;20415;-73
2023/04/18 16:41:23;;;;;;;9.83;6.33;;;14.20;99.90;;;;;;6241234;23;20407;-74
2023/04/18 16:43:56;;;;;;;7.43;6.17;;;14.20;99.90;;;;;;6239226;22;20451;-73
2023/04/18 16:46:38;;;;;;;6.33;5.03;;;14.20;99.90;;;;;;6164565;23;20449;-74
2023/04/18 16:52:54;;;;;;;7.97;5.53;;;14.10;99.90;;;;;;6216176;23;20420;-74
2023/04/18 16:55:54;;;;;;;;;;;;;;;;;;;;;
2023/04/18 16:59:12;;;;;;;8.87;5.73;;;14.10;99.90;;;;;;6237588;23;20490;-74
2023/04/18 17:04:58;;;;;;;8.30;6.03;;;14.10;99.90;;;;;;6244702;22;20482;-74
2023/04/18 17:07:27;;;;;;;5.10;4.30;;;14.00;99.90;;;;;;6253470;23;20378;-72
2023/04/18 17:10:05;;;;;;;8.00;6.20;;;13.90;99.90;;;;;;6239013;23;20411;-77
2023/04/18 17:12:33;;;;;;;7.20;4.43;;;13.80;99.90;;;;;;6236330;22;20394;-74
2023/04/18 17:15:06;;;;;;;7.90;6.10;;;13.80;99.90;;;;;;6236866;23;20528;-75
2023/04/18 17:17:35;;;;;;;7.73;6.00;;;13.80;99.90;;;;;;6182654;23;20411;-74
2023/04/18 17:20:06;;;;;;;12.33;7.90;;;13.70;99.90;;;;;;6238647;23;20408;-73
2023/04/18 17:22:33;;;;;;;5.77;4.60;;;13.80;99.90;;;;;;6238999;22;20433;-75
2023/04/18 17:25:00;;;;;;;8.07;6.23;;;13.80;99.90;;;;;;6241863;23;20411;-75
2023/04/18 17:27:30;;;;;;;8.87;7.00;;;13.60;99.90;;;;;;6235222;23;20441;-76
2023/04/18 17:30:03;;;;;;;9.50;5.60;;;13.60;99.90;;;;;;6235412;23;20962;-74
2023/04/18 17:32:40;;;;;;;9.77;6.20;;;13.50;99.90;;;;;;6178794;23;20449;-75
2023/04/18 17:35:10;;;;;;;9.60;5.97;;;13.40;99.90;;;;;;6235185;23;20466;-75
2023/04/18 17:37:37;;;;;;;9.63;7.27;;;13.40;99.90;;;;;;6236698;23;20945;-75
2023/04/18 17:40:08;;;;;;;5.30;3.80;;;13.40;99.90;;;;;;6239494;23;20914;-75
2023/04/18 17:42:37;;;;;;;12.90;7.80;;;13.40;99.90;;;;;;6236271;22;20431;-75
2023/04/18 17:45:07;;;;;;;7.63;4.93;;;13.30;99.90;;;;;;6246109;23;20465;-73
2023/04/18 17:47:38;;;;;;;8.70;5.80;;;13.20;99.90;;;;;;6241196;23;20710;-75
2023/04/18 17:50:07;;;;;;;10.17;6.53;;;13.30;99.90;;;;;;6236379;23;20772;-74
2023/04/18 17:52:38;;;;;;;5.60;4.60;;;13.20;99.90;;;;;;6234767;22;20472;-75
2023/04/18 17:55:14;;;;;;;10.83;6.60;;;13.20;99.90;;;;;;6233245;23;20508;-74
2023/04/18 17:57:45;;;;;;;10.73;5.87;;;13.10;99.90;;;;;;6235117;23;20577;-75
2023/04/18 18:00:13;;;;;;;11.67;7.73;;;13.00;99.90;;;;;;6236227;23;20946;-75
2023/04/18 18:02:41;;;;;;;7.47;6.60;;;13.00;99.90;;;;;;6236381;22;20431;-75
2023/04/18 18:05:16;;;;;;;9.53;6.50;;;13.00;99.90;;;;;;6236044;23;21177;-75
2023/04/18 18:07:47;;;;;;;7.20;4.63;;;13.00;99.90;;;;;;6237153;23;20423;-75
2023/04/18 18:10:18;;;;;;;9.30;6.00;;;12.90;99.90;;;;;;6239107;23;20470;-74
2023/04/18 18:12:47;;;;;;;12.27;8.10;;;12.80;99.90;;;;;;6238811;22;20876;-73